Terminal Aerodrome Forecast
Issued by NWS Topeka, KS

Home | Current Version | Previous Version | Graphics & Text | Print | Product List | Glossary On
Versions: 1 2 3 4 5 6 7 8 9 10 11 12 13 14 15 16 17 18 19 20 21 22 23 24 25 26 27 28
000
FTUS43 KTOP 240717 AAA
TAFTOP
TAF AMD
KTOP 240717Z 2407/2506 18011KT P6SM BKN250 WS015/18050KT
     FM241400 17014G21KT P6SM SCT020 BKN035
     FM241900 16012KT P6SM VCTS BKN040CB
     FM250000 13008KT P6SM VCTS BKN060CB=

USA.gov is the U.S. government's official web portal to all federal, state and local government web resources and services.